createdAt,value
2019-02-06T00:04:38.824Z,50.27
2019-02-06T00:09:43.192Z,51.43
2019-02-06T00:14:48.753Z,49.77
2019-02-06T00:19:53.096Z,49.17
2019-02-06T00:24:57.284Z,48.93
2019-02-06T00:30:01.939Z,50.77
2019-02-06T00:35:06.578Z,49.60
2019-02-06T00:40:11.253Z,48.20
2019-02-06T00:45:15.612Z,45.33
2019-02-06T00:50:19.875Z,42.73
2019-02-06T00:55:24.123Z,41.10
2019-02-06T01:00:28.618Z,42.40
2019-02-06T01:05:38.486Z,40.63
2019-02-06T01:10:39.449Z,40.33
2019-02-06T01:15:43.783Z,41.27
2019-02-06T01:20:48.062Z,40.27
2019-02-06T01:25:52.553Z,39.40
2019-02-06T01:31:03.957Z,37.73
2019-02-06T01:36:08.195Z,37.00
2019-02-06T01:41:12.561Z,35.77
2019-02-06T01:46:16.872Z,35.83
2019-02-06T01:51:21.167Z,35.17
2019-02-06T01:56:25.485Z,34.83
2019-02-06T02:01:29.725Z,33.47
2019-02-06T02:06:33.969Z,36.90
2019-02-06T02:11:38.171Z,33.37
2019-02-06T02:16:42.445Z,34.90
2019-02-06T02:21:46.634Z,35.30
2019-02-06T02:26:50.919Z,36.83
2019-02-06T02:31:55.218Z,37.07
2019-02-06T02:36:59.455Z,37.93
2019-02-06T02:42:03.729Z,35.80
2019-02-06T02:47:08.152Z,37.60
2019-02-06T02:52:12.371Z,38.00
2019-02-06T02:57:16.923Z,38.43
2019-02-06T03:02:52.425Z,37.17
2019-02-06T03:07:56.777Z,37.53
2019-02-06T03:13:00.984Z,36.47
2019-02-06T03:18:05.261Z,37.40
2019-02-06T03:23:09.540Z,35.97
2019-02-06T03:28:13.775Z,38.93
2019-02-06T03:33:18.147Z,37.90
2019-02-06T03:38:22.440Z,41.57
2019-02-06T03:43:26.708Z,37.23
2019-02-06T03:48:30.930Z,38.43
2019-02-06T03:53:35.310Z,38.30
2019-02-06T03:58:39.709Z,36.90
2019-02-06T04:03:44.000Z,39.87
2019-02-06T04:08:48.566Z,40.73
2019-02-06T04:13:52.838Z,38.97
2019-02-06T04:18:57.506Z,38.53
2019-02-06T04:24:02.860Z,38.80
2019-02-06T04:29:07.058Z,40.53
2019-02-06T04:34:11.258Z,44.67
2019-02-06T04:39:15.453Z,40.70
2019-02-06T04:44:19.664Z,40.43
2019-02-06T04:49:23.849Z,41.73
2019-02-06T04:54:28.142Z,37.07
2019-02-06T04:59:32.425Z,35.47
2019-02-06T05:04:36.709Z,38.80
2019-02-06T05:09:41.070Z,37.10
2019-02-06T05:14:45.439Z,41.20
2019-02-06T05:19:49.697Z,39.87
2019-02-06T05:24:53.987Z,38.53
2019-02-06T05:29:58.231Z,37.13
2019-02-06T05:35:02.464Z,47.70
2019-02-06T05:40:06.981Z,33.80
2019-02-06T05:45:11.490Z,33.27
2019-02-06T05:50:16.194Z,37.33
2019-02-06T05:55:20.693Z,35.53
2019-02-06T06:00:30.841Z,34.50
2019-02-06T06:05:35.121Z,31.27
2019-02-06T06:10:39.430Z,32.13
2019-02-06T06:15:43.718Z,33.43
2019-02-06T06:20:48.036Z,27.77
2019-02-06T06:25:52.441Z,30.63
2019-02-06T06:30:56.693Z,30.13
2019-02-06T06:36:02.201Z,26.40
2019-02-06T06:41:06.496Z,29.67
2019-02-06T06:46:10.738Z,27.53
2019-02-06T06:51:15.197Z,26.57
2019-02-06T06:56:19.432Z,29.83
2019-02-06T07:01:23.646Z,31.60
2019-02-06T07:06:27.846Z,28.90
2019-02-06T07:11:32.114Z,27.43
2019-02-06T07:16:36.313Z,28.60
2019-02-06T07:21:40.564Z,29.03
2019-02-06T07:26:45.271Z,26.67
2019-02-06T07:31:49.548Z,26.80
2019-02-06T07:36:53.751Z,29.67
2019-02-06T07:41:58.080Z,27.87
2019-02-06T07:47:02.442Z,23.70
2019-02-06T07:52:07.023Z,27.53
2019-02-06T07:57:11.294Z,29.50
2019-02-06T08:02:15.525Z,24.83
2019-02-06T08:07:19.796Z,21.47
2019-02-06T08:12:24.037Z,24.63
2019-02-06T08:17:28.713Z,23.47
2019-02-06T08:22:33.040Z,22.40
2019-02-06T08:27:37.347Z,25.37
2019-02-06T08:32:41.630Z,25.87
2019-02-06T08:37:45.887Z,26.27
2019-02-06T08:42:50.138Z,24.90
2019-02-06T08:47:54.338Z,25.80
2019-02-06T08:52:58.695Z,23.80
2019-02-06T08:58:03.456Z,26.20
2019-02-06T09:03:09.274Z,24.13
2019-02-06T09:08:13.571Z,23.53
2019-02-06T09:13:19.093Z,25.27
2019-02-06T09:18:23.803Z,27.63
2019-02-06T09:23:28.115Z,23.20
2019-02-06T09:28:32.404Z,24.57
2019-02-06T09:33:36.675Z,23.57
2019-02-06T09:38:41.011Z,24.57
2019-02-06T09:43:45.523Z,24.20
2019-02-06T09:48:49.817Z,24.53
2019-02-06T09:53:54.097Z,23.53
2019-02-06T09:58:58.386Z,25.07
2019-02-06T10:04:02.673Z,23.43
2019-02-06T10:09:10.213Z,23.67
2019-02-06T10:14:14.441Z,21.83
2019-02-06T10:19:18.669Z,24.03
2019-02-06T10:24:22.986Z,22.33
2019-02-06T10:29:27.380Z,24.13
2019-02-06T10:34:31.709Z,23.33
2019-02-06T10:39:36.093Z,19.77
2019-02-06T10:44:40.466Z,27.80
2019-02-06T10:49:44.793Z,23.13
2019-02-06T10:54:49.082Z,20.43
2019-02-06T10:59:53.666Z,19.10
2019-02-06T11:04:57.893Z,19.40
2019-02-06T11:10:02.134Z,18.20
2019-02-06T11:15:07.647Z,18.33
2019-02-06T11:20:15.242Z,17.82
2019-02-06T11:25:19.481Z,18.55
2019-02-06T11:30:25.874Z,15.50
2019-02-06T11:35:30.080Z,19.52
2019-02-06T11:40:34.358Z,17.30
2019-02-06T11:45:38.658Z,15.83
2019-02-06T11:50:44.123Z,17.07
2019-02-06T11:55:48.477Z,16.83
2019-02-06T12:01:17.658Z,19.77
2019-02-06T12:23:44.946Z,19.87
2019-02-06T12:28:49.267Z,16.00
2019-02-06T12:33:53.639Z,17.00
2019-02-06T12:38:57.939Z,17.32
2019-02-06T12:44:02.175Z,15.53
2019-02-06T12:49:06.675Z,14.20
2019-02-06T12:54:10.971Z,17.48
2019-02-06T12:59:15.191Z,15.88
2019-02-06T13:04:19.875Z,14.47
2019-02-06T13:09:24.071Z,14.67
2019-02-06T13:14:28.319Z,13.60
2019-02-06T13:19:32.653Z,19.73
2019-02-06T13:24:36.915Z,14.03
2019-02-06T13:29:41.422Z,13.40
2019-02-06T13:34:45.766Z,13.85
2019-02-06T13:39:50.048Z,16.67
2019-02-06T13:44:54.331Z,13.80
2019-02-06T13:49:58.731Z,12.35
2019-02-06T13:55:02.996Z,12.60
2019-02-06T14:00:10.613Z,13.70
2019-02-06T14:05:18.719Z,11.70
2019-02-06T14:10:25.426Z,12.82
2019-02-06T14:15:32.859Z,13.43
2019-02-06T14:20:37.334Z,13.48
2019-02-06T14:26:01.963Z,13.90
2019-02-06T14:31:34.030Z,13.20
2019-02-06T14:37:14.679Z,11.80
2019-02-06T14:42:23.219Z,12.03
2019-02-06T14:47:58.718Z,12.80
2019-02-06T14:53:35.725Z,13.80
2019-02-06T14:59:19.677Z,14.50
2019-02-06T15:05:01.640Z,15.07
2019-02-06T15:10:35.345Z,12.23
2019-02-06T15:16:07.468Z,11.18
2019-02-06T15:21:55.931Z,12.87
2019-02-06T15:27:22.549Z,12.95
2019-02-06T15:32:47.194Z,14.45
2019-02-06T15:38:10.016Z,14.23
2019-02-06T15:43:35.952Z,12.07
2019-02-06T15:48:44.280Z,13.33
2019-02-06T15:54:02.778Z,14.80
2019-02-06T15:59:34.571Z,14.73
2019-02-06T16:05:27.482Z,12.50
2019-02-06T16:10:48.966Z,12.07
2019-02-06T16:16:18.003Z,14.37
2019-02-06T16:21:29.533Z,12.13
2019-02-06T16:26:42.066Z,13.50
2019-02-06T16:31:54.823Z,15.27
2019-02-06T16:37:09.366Z,12.95
2019-02-06T16:42:33.936Z,12.03
2019-02-06T16:47:55.579Z,15.20
2019-02-06T16:53:27.473Z,14.13
2019-02-06T16:58:49.453Z,13.55
2019-02-06T17:04:08.332Z,12.87
2019-02-06T17:09:31.131Z,14.23
2019-02-06T17:14:56.750Z,12.33
2019-02-06T17:20:15.975Z,14.70
2019-02-06T17:25:38.859Z,13.33
2019-02-06T17:31:10.569Z,13.13
2019-02-06T17:36:39.836Z,13.53
2019-02-06T17:42:02.850Z,13.87
2019-02-06T17:47:12.457Z,13.68
2019-02-06T17:52:41.510Z,20.43
2019-02-06T17:57:45.625Z,13.00
2019-02-06T18:02:50.018Z,16.07
2019-02-06T18:07:53.646Z,14.58
2019-02-06T18:12:57.636Z,13.73
2019-02-06T18:18:02.742Z,12.60
2019-02-06T18:23:06.406Z,14.87
2019-02-06T18:28:11.860Z,13.77
2019-02-06T18:33:15.535Z,15.53
2019-02-06T18:38:19.316Z,15.40
2019-02-06T18:43:23.094Z,14.60
2019-02-06T18:48:28.207Z,15.00
2019-02-06T18:53:32.315Z,15.10
2019-02-06T18:58:36.095Z,15.07
2019-02-06T19:03:41.352Z,12.23
2019-02-06T19:08:45.718Z,12.23
2019-02-06T19:13:49.503Z,14.10
2019-02-06T19:18:53.282Z,11.60
2019-02-06T19:23:58.274Z,14.60
2019-02-06T19:29:02.019Z,13.93
2019-02-06T19:34:06.027Z,12.97
2019-02-06T19:39:09.833Z,11.83
2019-02-06T19:44:13.651Z,13.67
2019-02-06T19:49:17.452Z,14.00
2019-02-06T19:54:21.454Z,13.97
2019-02-06T19:59:25.381Z,12.90
2019-02-06T20:04:29.569Z,13.73
2019-02-06T20:09:33.292Z,13.47
2019-02-06T20:14:37.092Z,13.97
2019-02-06T20:19:41.128Z,13.80
2019-02-06T20:24:44.927Z,11.83
2019-02-06T20:29:50.424Z,15.13
2019-02-06T20:34:54.207Z,13.77
2019-02-06T20:39:58.000Z,13.17
2019-02-06T20:45:01.900Z,11.27
2019-02-06T20:50:06.580Z,13.70
2019-02-06T20:55:10.324Z,12.17
2019-02-06T21:00:16.315Z,12.33
2019-02-06T21:05:20.079Z,13.23
2019-02-06T21:10:25.663Z,13.03
2019-02-06T21:15:29.644Z,14.57
2019-02-06T21:20:33.253Z,13.93
2019-02-06T21:25:37.314Z,13.77
2019-02-06T21:30:41.087Z,14.63
2019-02-06T21:35:44.889Z,12.90
2019-02-06T21:40:48.648Z,14.53
2019-02-06T21:45:52.442Z,14.23
2019-02-06T21:50:56.548Z,14.20
2019-02-06T21:56:00.265Z,14.13
2019-02-06T22:01:04.313Z,13.30
2019-02-06T22:06:08.080Z,18.00
2019-02-06T22:11:11.869Z,16.10
2019-02-06T22:16:15.561Z,16.90
2019-02-06T22:21:19.570Z,16.87
2019-02-06T22:26:23.177Z,17.30
2019-02-06T22:31:26.951Z,17.40
2019-02-06T22:36:30.952Z,16.73
2019-02-06T22:41:34.721Z,17.30
2019-02-06T22:46:38.492Z,16.67
2019-02-06T22:51:42.296Z,17.90
2019-02-06T22:56:46.002Z,18.03
2019-02-06T23:01:54.306Z,17.77
2019-02-06T23:06:58.068Z,17.73
2019-02-06T23:12:01.763Z,16.47
2019-02-06T23:17:05.653Z,17.63
2019-02-06T23:22:09.334Z,18.73
2019-02-06T23:27:13.087Z,19.17
2019-02-06T23:32:16.814Z,18.20
2019-02-06T23:37:20.433Z,17.70
2019-02-06T23:42:24.088Z,19.70
2019-02-06T23:47:27.944Z,17.40
2019-02-06T23:52:32.583Z,16.87
2019-02-06T23:57:36.319Z,21.17
